sensor_id;sensor_type;location;lat;lon;timestamp;P1;durP1;ratioP1;P2;durP2;ratioP2
46753;SDS011;32500;50.620;3.400;2023-07-28T00:01:34;82.57;;;52.42;;
46753;SDS011;32500;50.620;3.400;2023-07-28T00:03:59;82.18;;;52.67;;
46753;SDS011;32500;50.620;3.400;2023-07-28T00:06:26;81.95;;;52.60;;
46753;SDS011;32500;50.620;3.400;2023-07-28T00:08:51;82.30;;;52.35;;
46753;SDS011;32500;50.620;3.400;2023-07-28T00:11:17;81.75;;;52.35;;
46753;SDS011;32500;50.620;3.400;2023-07-28T00:13:42;83.03;;;52.78;;
46753;SDS011;32500;50.620;3.400;2023-07-28T00:16:09;83.88;;;52.45;;
46753;SDS011;32500;50.620;3.400;2023-07-28T00:18:35;81.68;;;52.45;;
46753;SDS011;32500;50.620;3.400;2023-07-28T00:21:00;82.07;;;52.47;;
46753;SDS011;32500;50.620;3.400;2023-07-28T00:23:27;81.70;;;52.45;;
46753;SDS011;32500;50.620;3.400;2023-07-28T00:25:53;81.50;;;52.33;;
46753;SDS011;32500;50.620;3.400;2023-07-28T00:28:18;81.82;;;52.30;;
46753;SDS011;32500;50.620;3.400;2023-07-28T00:30:44;82.00;;;52.40;;
46753;SDS011;32500;50.620;3.400;2023-07-28T00:33:13;82.90;;;52.33;;
46753;SDS011;32500;50.620;3.400;2023-07-28T00:35:39;82.20;;;52.60;;
46753;SDS011;32500;50.620;3.400;2023-07-28T00:38:04;82.10;;;52.45;;
46753;SDS011;32500;50.620;3.400;2023-07-28T00:40:30;82.07;;;52.42;;
46753;SDS011;32500;50.620;3.400;2023-07-28T00:42:55;81.75;;;52.33;;
46753;SDS011;32500;50.620;3.400;2023-07-28T00:45:21;81.78;;;52.15;;
46753;SDS011;32500;50.620;3.400;2023-07-28T00:47:47;83.10;;;52.42;;
46753;SDS011;32500;50.620;3.400;2023-07-28T00:50:12;82.13;;;52.55;;
46753;SDS011;32500;50.620;3.400;2023-07-28T00:52:39;82.18;;;52.35;;
46753;SDS011;32500;50.620;3.400;2023-07-28T00:55:05;81.40;;;52.15;;
46753;SDS011;32500;50.620;3.400;2023-07-28T00:57:31;81.75;;;52.42;;
46753;SDS011;32500;50.620;3.400;2023-07-28T00:59:58;83.20;;;52.33;;
46753;SDS011;32500;50.620;3.400;2023-07-28T01:02:24;81.60;;;52.25;;
46753;SDS011;32500;50.620;3.400;2023-07-28T01:04:50;82.15;;;52.20;;
46753;SDS011;32500;50.620;3.400;2023-07-28T01:07:26;82.88;;;52.33;;
46753;SDS011;32500;50.620;3.400;2023-07-28T01:10:43;83.03;;;52.63;;
46753;SDS011;32500;50.620;3.400;2023-07-28T01:12:53;82.00;;;52.60;;
46753;SDS011;32500;50.620;3.400;2023-07-28T01:15:19;82.78;;;52.22;;
46753;SDS011;32500;50.620;3.400;2023-07-28T01:17:44;82.53;;;52.58;;
46753;SDS011;32500;50.620;3.400;2023-07-28T01:20:10;81.90;;;52.33;;
46753;SDS011;32500;50.620;3.400;2023-07-28T01:27:43;83.30;;;52.60;;
46753;SDS011;32500;50.620;3.400;2023-07-28T01:30:09;82.15;;;52.45;;
46753;SDS011;32500;50.620;3.400;2023-07-28T01:32:36;82.32;;;52.22;;
46753;SDS011;32500;50.620;3.400;2023-07-28T01:35:02;81.93;;;52.53;;
46753;SDS011;32500;50.620;3.400;2023-07-28T01:37:29;83.15;;;52.53;;
46753;SDS011;32500;50.620;3.400;2023-07-28T01:39:54;82.45;;;52.65;;
46753;SDS011;32500;50.620;3.400;2023-07-28T01:42:22;81.85;;;52.58;;
46753;SDS011;32500;50.620;3.400;2023-07-28T01:44:48;82.13;;;52.75;;
46753;SDS011;32500;50.620;3.400;2023-07-28T01:47:14;81.93;;;52.55;;
46753;SDS011;32500;50.620;3.400;2023-07-28T01:49:39;82.90;;;52.53;;
46753;SDS011;32500;50.620;3.400;2023-07-28T01:52:05;82.57;;;52.47;;
46753;SDS011;32500;50.620;3.400;2023-07-28T01:54:30;82.60;;;52.33;;
46753;SDS011;32500;50.620;3.400;2023-07-28T01:56:56;82.47;;;52.42;;
46753;SDS011;32500;50.620;3.400;2023-07-28T01:59:22;82.05;;;52.60;;
46753;SDS011;32500;50.620;3.400;2023-07-28T02:01:47;81.97;;;52.55;;
46753;SDS011;32500;50.620;3.400;2023-07-28T02:04:13;81.55;;;52.42;;
46753;SDS011;32500;50.620;3.400;2023-07-28T02:06:39;81.78;;;52.38;;
46753;SDS011;32500;50.620;3.400;2023-07-28T02:09:04;81.93;;;52.60;;
46753;SDS011;32500;50.620;3.400;2023-07-28T02:11:30;81.95;;;52.53;;
46753;SDS011;32500;50.620;3.400;2023-07-28T02:13:55;81.60;;;52.42;;
46753;SDS011;32500;50.620;3.400;2023-07-28T02:16:21;81.93;;;52.60;;
46753;SDS011;32500;50.620;3.400;2023-07-28T02:18:46;81.70;;;52.40;;
46753;SDS011;32500;50.620;3.400;2023-07-28T02:21:12;82.15;;;52.45;;
46753;SDS011;32500;50.620;3.400;2023-07-28T02:23:38;82.32;;;52.53;;
46753;SDS011;32500;50.620;3.400;2023-07-28T02:26:03;82.40;;;52.33;;
46753;SDS011;32500;50.620;3.400;2023-07-28T02:28:29;82.47;;;52.50;;
46753;SDS011;32500;50.620;3.400;2023-07-28T02:30:54;82.22;;;52.55;;
46753;SDS011;32500;50.620;3.400;2023-07-28T02:33:20;81.65;;;52.35;;
46753;SDS011;32500;50.620;3.400;2023-07-28T02:35:45;81.95;;;52.42;;
46753;SDS011;32500;50.620;3.400;2023-07-28T02:38:11;81.53;;;52.53;;
46753;SDS011;32500;50.620;3.400;2023-07-28T02:40:37;81.57;;;52.40;;
46753;SDS011;32500;50.620;3.400;2023-07-28T02:43:02;81.68;;;52.45;;
46753;SDS011;32500;50.620;3.400;2023-07-28T02:45:28;81.75;;;52.33;;
46753;SDS011;32500;50.620;3.400;2023-07-28T02:47:53;82.07;;;52.65;;
46753;SDS011;32500;50.620;3.400;2023-07-28T02:50:19;81.20;;;52.05;;
46753;SDS011;32500;50.620;3.400;2023-07-28T02:52:45;81.68;;;52.40;;
46753;SDS011;32500;50.620;3.400;2023-07-28T02:55:11;81.70;;;52.50;;
46753;SDS011;32500;50.620;3.400;2023-07-28T02:57:36;81.55;;;52.42;;
46753;SDS011;32500;50.620;3.400;2023-07-28T03:00:02;82.45;;;52.28;;
46753;SDS011;32500;50.620;3.400;2023-07-28T03:02:30;82.10;;;52.42;;
46753;SDS011;32500;50.620;3.400;2023-07-28T03:04:56;81.53;;;52.15;;
46753;SDS011;32500;50.620;3.400;2023-07-28T03:07:21;81.30;;;52.15;;
46753;SDS011;32500;50.620;3.400;2023-07-28T03:09:47;81.85;;;52.47;;
46753;SDS011;32500;50.620;3.400;2023-07-28T03:12:13;81.97;;;52.22;;
46753;SDS011;32500;50.620;3.400;2023-07-28T03:14:38;81.55;;;52.22;;
46753;SDS011;32500;50.620;3.400;2023-07-28T03:17:04;83.00;;;52.53;;
46753;SDS011;32500;50.620;3.400;2023-07-28T03:19:29;81.18;;;52.13;;
46753;SDS011;32500;50.620;3.400;2023-07-28T03:21:55;81.50;;;52.22;;
46753;SDS011;32500;50.620;3.400;2023-07-28T03:24:21;81.38;;;52.30;;
46753;SDS011;32500;50.620;3.400;2023-07-28T03:26:46;81.68;;;52.35;;
46753;SDS011;32500;50.620;3.400;2023-07-28T03:29:12;81.63;;;52.35;;
46753;SDS011;32500;50.620;3.400;2023-07-28T03:31:37;81.50;;;52.33;;
46753;SDS011;32500;50.620;3.400;2023-07-28T03:34:03;81.40;;;52.05;;
46753;SDS011;32500;50.620;3.400;2023-07-28T03:36:29;81.93;;;52.00;;
46753;SDS011;32500;50.620;3.400;2023-07-28T03:38:54;81.28;;;52.17;;
46753;SDS011;32500;50.620;3.400;2023-07-28T03:41:20;81.93;;;52.17;;
46753;SDS011;32500;50.620;3.400;2023-07-28T03:43:46;81.63;;;52.38;;
46753;SDS011;32500;50.620;3.400;2023-07-28T03:46:11;81.43;;;52.22;;
46753;SDS011;32500;50.620;3.400;2023-07-28T03:48:37;81.13;;;52.13;;
46753;SDS011;32500;50.620;3.400;2023-07-28T03:51:03;80.93;;;52.00;;
46753;SDS011;32500;50.620;3.400;2023-07-28T03:53:28;83.47;;;52.22;;
46753;SDS011;32500;50.620;3.400;2023-07-28T03:55:54;80.93;;;51.85;;
46753;SDS011;32500;50.620;3.400;2023-07-28T03:58:23;81.30;;;52.15;;
46753;SDS011;32500;50.620;3.400;2023-07-28T04:00:50;80.90;;;52.05;;
46753;SDS011;32500;50.620;3.400;2023-07-28T04:03:17;81.00;;;51.95;;
46753;SDS011;32500;50.620;3.400;2023-07-28T04:05:42;81.43;;;52.20;;
46753;SDS011;32500;50.620;3.400;2023-07-28T04:08:08;81.25;;;52.00;;
46753;SDS011;32500;50.620;3.400;2023-07-28T04:10:33;81.40;;;52.10;;
46753;SDS011;32500;50.620;3.400;2023-07-28T04:12:59;81.30;;;52.10;;
46753;SDS011;32500;50.620;3.400;2023-07-28T04:15:24;82.28;;;52.25;;
46753;SDS011;32500;50.620;3.400;2023-07-28T04:17:50;81.70;;;52.13;;
46753;SDS011;32500;50.620;3.400;2023-07-28T04:20:16;81.30;;;51.95;;
46753;SDS011;32500;50.620;3.400;2023-07-28T04:22:41;81.28;;;52.13;;
46753;SDS011;32500;50.620;3.400;2023-07-28T04:25:07;81.07;;;52.00;;
46753;SDS011;32500;50.620;3.400;2023-07-28T04:27:32;81.78;;;52.33;;
46753;SDS011;32500;50.620;3.400;2023-07-28T04:29:58;81.40;;;52.13;;
46753;SDS011;32500;50.620;3.400;2023-07-28T04:32:24;81.43;;;52.15;;
46753;SDS011;32500;50.620;3.400;2023-07-28T04:34:51;81.35;;;52.15;;
46753;SDS011;32500;50.620;3.400;2023-07-28T04:37:16;82.72;;;52.42;;
46753;SDS011;32500;50.620;3.400;2023-07-28T04:39:42;81.38;;;52.22;;
46753;SDS011;32500;50.620;3.400;2023-07-28T04:42:08;81.43;;;52.22;;
46753;SDS011;32500;50.620;3.400;2023-07-28T04:44:34;81.38;;;52.03;;
46753;SDS011;32500;50.620;3.400;2023-07-28T04:47:03;81.80;;;52.35;;
46753;SDS011;32500;50.620;3.400;2023-07-28T04:49:28;81.18;;;52.08;;
46753;SDS011;32500;50.620;3.400;2023-07-28T04:51:54;81.47;;;52.05;;
46753;SDS011;32500;50.620;3.400;2023-07-28T04:54:19;81.60;;;52.17;;
46753;SDS011;32500;50.620;3.400;2023-07-28T04:56:45;80.90;;;52.13;;
46753;SDS011;32500;50.620;3.400;2023-07-28T04:59:11;81.18;;;52.05;;
46753;SDS011;32500;50.620;3.400;2023-07-28T05:01:37;81.45;;;52.22;;
46753;SDS011;32500;50.620;3.400;2023-07-28T05:04:02;81.18;;;51.88;;
46753;SDS011;32500;50.620;3.400;2023-07-28T05:06:28;81.55;;;52.20;;
46753;SDS011;32500;50.620;3.400;2023-07-28T05:08:53;81.40;;;52.30;;
46753;SDS011;32500;50.620;3.400;2023-07-28T05:11:19;81.65;;;52.20;;
46753;SDS011;32500;50.620;3.400;2023-07-28T05:13:44;81.57;;;52.25;;
46753;SDS011;32500;50.620;3.400;2023-07-28T05:16:10;82.63;;;52.40;;
46753;SDS011;32500;50.620;3.400;2023-07-28T05:18:36;81.55;;;52.25;;
46753;SDS011;32500;50.620;3.400;2023-07-28T05:21:02;81.13;;;52.03;;
46753;SDS011;32500;50.620;3.400;2023-07-28T05:23:27;81.85;;;52.38;;
46753;SDS011;32500;50.620;3.400;2023-07-28T05:25:53;81.65;;;52.45;;
46753;SDS011;32500;50.620;3.400;2023-07-28T05:28:19;81.53;;;52.20;;
46753;SDS011;32500;50.620;3.400;2023-07-28T05:30:44;81.43;;;52.15;;
46753;SDS011;32500;50.620;3.400;2023-07-28T05:33:10;82.30;;;52.20;;
46753;SDS011;32500;50.620;3.400;2023-07-28T05:35:35;81.72;;;52.35;;
46753;SDS011;32500;50.620;3.400;2023-07-28T05:38:01;81.93;;;52.35;;
46753;SDS011;32500;50.620;3.400;2023-07-28T05:40:26;81.90;;;52.50;;
46753;SDS011;32500;50.620;3.400;2023-07-28T05:42:52;82.07;;;52.65;;
46753;SDS011;32500;50.620;3.400;2023-07-28T05:45:18;81.80;;;52.42;;
46753;SDS011;32500;50.620;3.400;2023-07-28T05:47:43;81.97;;;52.47;;
46753;SDS011;32500;50.620;3.400;2023-07-28T05:50:09;82.10;;;52.55;;
46753;SDS011;32500;50.620;3.400;2023-07-28T05:52:35;82.13;;;52.33;;
46753;SDS011;32500;50.620;3.400;2023-07-28T05:55:00;82.03;;;52.35;;
46753;SDS011;32500;50.620;3.400;2023-07-28T05:57:26;81.85;;;52.38;;
46753;SDS011;32500;50.620;3.400;2023-07-28T05:59:51;81.75;;;52.30;;
46753;SDS011;32500;50.620;3.400;2023-07-28T06:02:17;81.78;;;52.38;;
46753;SDS011;32500;50.620;3.400;2023-07-28T06:04:42;81.88;;;52.25;;
46753;SDS011;32500;50.620;3.400;2023-07-28T06:07:09;82.35;;;52.33;;
46753;SDS011;32500;50.620;3.400;2023-07-28T06:09:35;81.68;;;52.22;;
46753;SDS011;32500;50.620;3.400;2023-07-28T06:12:00;81.68;;;52.35;;
46753;SDS011;32500;50.620;3.400;2023-07-28T06:14:26;81.20;;;51.90;;
46753;SDS011;32500;50.620;3.400;2023-07-28T06:16:51;82.57;;;52.33;;
46753;SDS011;32500;50.620;3.400;2023-07-28T06:19:17;82.13;;;52.30;;
46753;SDS011;32500;50.620;3.400;2023-07-28T06:24:15;81.63;;;52.25;;
46753;SDS011;32500;50.620;3.400;2023-07-28T06:26:40;82.25;;;52.30;;
46753;SDS011;32500;50.620;3.400;2023-07-28T06:29:06;83.00;;;52.40;;
46753;SDS011;32500;50.620;3.400;2023-07-28T06:31:32;82.05;;;52.45;;
46753;SDS011;32500;50.620;3.400;2023-07-28T06:33:57;82.60;;;52.45;;
46753;SDS011;32500;50.620;3.400;2023-07-28T06:36:23;82.05;;;52.40;;
46753;SDS011;32500;50.620;3.400;2023-07-28T06:38:49;83.28;;;52.50;;
46753;SDS011;32500;50.620;3.400;2023-07-28T06:41:16;83.03;;;52.55;;
46753;SDS011;32500;50.620;3.400;2023-07-28T06:43:41;82.13;;;52.38;;
46753;SDS011;32500;50.620;3.400;2023-07-28T06:46:07;82.13;;;52.53;;
46753;SDS011;32500;50.620;3.400;2023-07-28T06:48:33;82.60;;;52.65;;
46753;SDS011;32500;50.620;3.400;2023-07-28T06:50:58;82.07;;;52.42;;
46753;SDS011;32500;50.620;3.400;2023-07-28T06:53:24;82.85;;;52.58;;
46753;SDS011;32500;50.620;3.400;2023-07-28T06:55:49;82.82;;;52.63;;
46753;SDS011;32500;50.620;3.400;2023-07-28T06:58:15;82.97;;;52.75;;
46753;SDS011;32500;50.620;3.400;2023-07-28T07:00:41;82.55;;;52.70;;
46753;SDS011;32500;50.620;3.400;2023-07-28T07:03:07;83.57;;;52.65;;
46753;SDS011;32500;50.620;3.400;2023-07-28T07:05:34;82.68;;;52.65;;
46753;SDS011;32500;50.620;3.400;2023-07-28T07:07:59;82.75;;;52.42;;
46753;SDS011;32500;50.620;3.400;2023-07-28T07:10:26;85.60;;;53.03;;
46753;SDS011;32500;50.620;3.400;2023-07-28T07:12:52;83.85;;;52.58;;
46753;SDS011;32500;50.620;3.400;2023-07-28T07:15:17;85.03;;;52.58;;
46753;SDS011;32500;50.620;3.400;2023-07-28T07:17:43;83.50;;;52.80;;
46753;SDS011;32500;50.620;3.400;2023-07-28T07:20:09;83.20;;;52.65;;
46753;SDS011;32500;50.620;3.400;2023-07-28T07:22:35;84.07;;;52.75;;
46753;SDS011;32500;50.620;3.400;2023-07-28T07:25:02;83.03;;;52.58;;
46753;SDS011;32500;50.620;3.400;2023-07-28T07:27:32;82.93;;;52.50;;
46753;SDS011;32500;50.620;3.400;2023-07-28T07:29:57;83.80;;;52.95;;
46753;SDS011;32500;50.620;3.400;2023-07-28T07:32:23;83.05;;;52.65;;
46753;SDS011;32500;50.620;3.400;2023-07-28T07:34:48;83.97;;;52.67;;
46753;SDS011;32500;50.620;3.400;2023-07-28T07:37:14;84.75;;;52.97;;
46753;SDS011;32500;50.620;3.400;2023-07-28T07:39:40;83.43;;;52.90;;
46753;SDS011;32500;50.620;3.400;2023-07-28T07:42:06;84.70;;;53.08;;
46753;SDS011;32500;50.620;3.400;2023-07-28T07:44:34;84.03;;;52.75;;
46753;SDS011;32500;50.620;3.400;2023-07-28T07:47:00;84.22;;;52.90;;
46753;SDS011;32500;50.620;3.400;2023-07-28T07:49:36;84.00;;;53.03;;
46753;SDS011;32500;50.620;3.400;2023-07-28T07:52:01;83.88;;;53.00;;
46753;SDS011;32500;50.620;3.400;2023-07-28T07:54:27;84.20;;;53.10;;
46753;SDS011;32500;50.620;3.400;2023-07-28T07:56:52;83.00;;;52.92;;
46753;SDS011;32500;50.620;3.400;2023-07-28T07:59:18;83.13;;;52.90;;
46753;SDS011;32500;50.620;3.400;2023-07-28T08:01:43;85.80;;;53.03;;
46753;SDS011;32500;50.620;3.400;2023-07-28T08:04:09;83.22;;;53.08;;
46753;SDS011;32500;50.620;3.400;2023-07-28T08:06:35;84.78;;;53.22;;
46753;SDS011;32500;50.620;3.400;2023-07-28T08:09:01;85.20;;;53.20;;
46753;SDS011;32500;50.620;3.400;2023-07-28T08:11:27;83.47;;;53.03;;
46753;SDS011;32500;50.620;3.400;2023-07-28T08:13:53;82.72;;;52.85;;
46753;SDS011;32500;50.620;3.400;2023-07-28T08:16:20;83.57;;;53.13;;
46753;SDS011;32500;50.620;3.400;2023-07-28T08:18:45;85.65;;;52.95;;
46753;SDS011;32500;50.620;3.400;2023-07-28T08:21:11;85.25;;;53.05;;
46753;SDS011;32500;50.620;3.400;2023-07-28T08:23:37;82.78;;;52.65;;
46753;SDS011;32500;50.620;3.400;2023-07-28T08:26:02;82.28;;;52.65;;
46753;SDS011;32500;50.620;3.400;2023-07-28T08:28:28;82.32;;;52.53;;
46753;SDS011;32500;50.620;3.400;2023-07-28T08:30:55;84.95;;;53.05;;
46753;SDS011;32500;50.620;3.400;2023-07-28T08:33:24;84.43;;;53.03;;
46753;SDS011;32500;50.620;3.400;2023-07-28T08:35:50;83.68;;;53.05;;
46753;SDS011;32500;50.620;3.400;2023-07-28T08:38:15;82.97;;;52.95;;
46753;SDS011;32500;50.620;3.400;2023-07-28T08:40:43;82.47;;;52.83;;
46753;SDS011;32500;50.620;3.400;2023-07-28T08:43:09;83.38;;;53.13;;
46753;SDS011;32500;50.620;3.400;2023-07-28T08:45:34;86.95;;;53.17;;
46753;SDS011;32500;50.620;3.400;2023-07-28T08:48:00;87.28;;;53.08;;
46753;SDS011;32500;50.620;3.400;2023-07-28T08:50:26;84.95;;;53.30;;
46753;SDS011;32500;50.620;3.400;2023-07-28T08:52:51;86.07;;;53.22;;
46753;SDS011;32500;50.620;3.400;2023-07-28T08:55:17;84.20;;;53.25;;
46753;SDS011;32500;50.620;3.400;2023-07-28T08:57:43;84.68;;;53.60;;
46753;SDS011;32500;50.620;3.400;2023-07-28T09:00:09;85.05;;;53.63;;
46753;SDS011;32500;50.620;3.400;2023-07-28T09:02:38;83.90;;;53.15;;
46753;SDS011;32500;50.620;3.400;2023-07-28T09:05:04;84.15;;;53.45;;
46753;SDS011;32500;50.620;3.400;2023-07-28T09:07:34;83.97;;;53.50;;
46753;SDS011;32500;50.620;3.400;2023-07-28T09:10:02;83.63;;;53.33;;
46753;SDS011;32500;50.620;3.400;2023-07-28T09:12:32;88.00;;;53.58;;
46753;SDS011;32500;50.620;3.400;2023-07-28T09:14:58;83.80;;;53.22;;
46753;SDS011;32500;50.620;3.400;2023-07-28T09:17:23;86.13;;;53.33;;
46753;SDS011;32500;50.620;3.400;2023-07-28T09:19:52;85.45;;;53.30;;
46753;SDS011;32500;50.620;3.400;2023-07-28T09:22:19;83.72;;;53.20;;
46753;SDS011;32500;50.620;3.400;2023-07-28T09:24:45;85.93;;;53.38;;
46753;SDS011;32500;50.620;3.400;2023-07-28T09:27:20;84.55;;;53.45;;
46753;SDS011;32500;50.620;3.400;2023-07-28T09:29:50;86.15;;;53.75;;
46753;SDS011;32500;50.620;3.400;2023-07-28T09:32:17;87.10;;;53.70;;
46753;SDS011;32500;50.620;3.400;2023-07-28T09:35:07;86.25;;;53.47;;
46753;SDS011;32500;50.620;3.400;2023-07-28T09:37:39;85.65;;;53.47;;
46753;SDS011;32500;50.620;3.400;2023-07-28T09:42:45;87.25;;;53.55;;
46753;SDS011;32500;50.620;3.400;2023-07-28T09:45:15;86.05;;;53.53;;
46753;SDS011;32500;50.620;3.400;2023-07-28T09:47:42;88.35;;;54.10;;
46753;SDS011;32500;50.620;3.400;2023-07-28T09:50:10;88.07;;;54.08;;
46753;SDS011;32500;50.620;3.400;2023-07-28T09:52:41;85.95;;;54.05;;
46753;SDS011;32500;50.620;3.400;2023-07-28T09:55:09;85.95;;;54.15;;
46753;SDS011;32500;50.620;3.400;2023-07-28T09:57:41;86.75;;;54.22;;
46753;SDS011;32500;50.620;3.400;2023-07-28T10:00:11;89.28;;;54.20;;
46753;SDS011;32500;50.620;3.400;2023-07-28T10:02:39;87.88;;;54.60;;
46753;SDS011;32500;50.620;3.400;2023-07-28T10:05:06;90.72;;;54.80;;
46753;SDS011;32500;50.620;3.400;2023-07-28T10:07:35;87.45;;;54.15;;
46753;SDS011;32500;50.620;3.400;2023-07-28T10:10:05;85.00;;;54.08;;
46753;SDS011;32500;50.620;3.400;2023-07-28T10:12:40;86.00;;;53.92;;
46753;SDS011;32500;50.620;3.400;2023-07-28T10:15:11;85.50;;;53.85;;
46753;SDS011;32500;50.620;3.400;2023-07-28T10:20:26;84.25;;;53.53;;
46753;SDS011;32500;50.620;3.400;2023-07-28T10:22:53;86.55;;;53.55;;
46753;SDS011;32500;50.620;3.400;2023-07-28T10:25:22;85.97;;;53.65;;
46753;SDS011;32500;50.620;3.400;2023-07-28T10:27:50;86.88;;;53.92;;
46753;SDS011;32500;50.620;3.400;2023-07-28T10:30:16;87.03;;;54.42;;
46753;SDS011;32500;50.620;3.400;2023-07-28T10:32:42;86.47;;;54.30;;
46753;SDS011;32500;50.620;3.400;2023-07-28T10:37:38;86.47;;;54.22;;
46753;SDS011;32500;50.620;3.400;2023-07-28T10:43:00;86.03;;;54.17;;
46753;SDS011;32500;50.620;3.400;2023-07-28T10:45:28;88.18;;;54.50;;
46753;SDS011;32500;50.620;3.400;2023-07-28T10:47:57;87.55;;;54.22;;
46753;SDS011;32500;50.620;3.400;2023-07-28T10:50:31;86.65;;;54.42;;
46753;SDS011;32500;50.620;3.400;2023-07-28T10:52:59;87.82;;;54.40;;
46753;SDS011;32500;50.620;3.400;2023-07-28T10:55:25;89.03;;;54.65;;
46753;SDS011;32500;50.620;3.400;2023-07-28T10:57:53;87.25;;;54.42;;
46753;SDS011;32500;50.620;3.400;2023-07-28T11:00:20;87.35;;;54.35;;
46753;SDS011;32500;50.620;3.400;2023-07-28T11:02:50;86.30;;;54.25;;
46753;SDS011;32500;50.620;3.400;2023-07-28T11:05:28;87.25;;;54.83;;
46753;SDS011;32500;50.620;3.400;2023-07-28T11:07:57;88.53;;;54.67;;
46753;SDS011;32500;50.620;3.400;2023-07-28T11:10:25;87.38;;;54.47;;
46753;SDS011;32500;50.620;3.400;2023-07-28T11:12:56;86.70;;;54.45;;
46753;SDS011;32500;50.620;3.400;2023-07-28T11:15:27;87.80;;;54.67;;
46753;SDS011;32500;50.620;3.400;2023-07-28T11:17:54;88.72;;;54.42;;
46753;SDS011;32500;50.620;3.400;2023-07-28T11:20:25;89.00;;;54.65;;
46753;SDS011;32500;50.620;3.400;2023-07-28T11:22:57;87.05;;;54.25;;
46753;SDS011;32500;50.620;3.400;2023-07-28T11:25:25;86.55;;;54.63;;
46753;SDS011;32500;50.620;3.400;2023-07-28T11:27:52;88.97;;;54.55;;
46753;SDS011;32500;50.620;3.400;2023-07-28T11:30:20;87.22;;;54.92;;
46753;SDS011;32500;50.620;3.400;2023-07-28T11:32:47;88.80;;;54.53;;
46753;SDS011;32500;50.620;3.400;2023-07-28T11:35:15;87.63;;;54.17;;
46753;SDS011;32500;50.620;3.400;2023-07-28T11:37:45;86.43;;;54.60;;
46753;SDS011;32500;50.620;3.400;2023-07-28T11:40:13;87.55;;;54.53;;
46753;SDS011;32500;50.620;3.400;2023-07-28T11:42:43;87.45;;;54.65;;
46753;SDS011;32500;50.620;3.400;2023-07-28T11:45:10;86.60;;;54.37;;
46753;SDS011;32500;50.620;3.400;2023-07-28T11:47:38;87.28;;;54.50;;
46753;SDS011;32500;50.620;3.400;2023-07-28T11:50:04;86.38;;;54.60;;
46753;SDS011;32500;50.620;3.400;2023-07-28T11:52:31;98.70;;;55.33;;
46753;SDS011;32500;50.620;3.400;2023-07-28T11:55:00;90.90;;;55.22;;
46753;SDS011;32500;50.620;3.400;2023-07-28T11:57:27;88.57;;;54.90;;
46753;SDS011;32500;50.620;3.400;2023-07-28T11:59:57;87.88;;;54.67;;
46753;SDS011;32500;50.620;3.400;2023-07-28T12:02:28;89.18;;;54.95;;
46753;SDS011;32500;50.620;3.400;2023-07-28T12:04:57;94.80;;;56.65;;
46753;SDS011;32500;50.620;3.400;2023-07-28T12:07:32;89.45;;;55.25;;
46753;SDS011;32500;50.620;3.400;2023-07-28T12:10:05;92.07;;;55.85;;
46753;SDS011;32500;50.620;3.400;2023-07-28T12:12:45;90.95;;;55.50;;
46753;SDS011;32500;50.620;3.400;2023-07-28T12:15:18;89.28;;;55.42;;
46753;SDS011;32500;50.620;3.400;2023-07-28T12:20:27;88.78;;;54.92;;
46753;SDS011;32500;50.620;3.400;2023-07-28T12:23:02;87.95;;;54.53;;
46753;SDS011;32500;50.620;3.400;2023-07-28T12:25:28;87.57;;;54.90;;
46753;SDS011;32500;50.620;3.400;2023-07-28T12:27:55;89.03;;;55.22;;
46753;SDS011;32500;50.620;3.400;2023-07-28T12:30:20;88.75;;;55.08;;
46753;SDS011;32500;50.620;3.400;2023-07-28T12:32:47;88.63;;;54.72;;
46753;SDS011;32500;50.620;3.400;2023-07-28T12:35:13;90.18;;;55.17;;
46753;SDS011;32500;50.620;3.400;2023-07-28T12:41:32;89.78;;;54.97;;
46753;SDS011;32500;50.620;3.400;2023-07-28T12:44:06;89.20;;;55.17;;
46753;SDS011;32500;50.620;3.400;2023-07-28T12:50:14;89.70;;;54.78;;
46753;SDS011;32500;50.620;3.400;2023-07-28T12:53:28;89.30;;;55.30;;
46753;SDS011;32500;50.620;3.400;2023-07-28T13:02:32;88.47;;;55.10;;
46753;SDS011;32500;50.620;3.400;2023-07-28T13:06:07;89.28;;;55.38;;
46753;SDS011;32500;50.620;3.400;2023-07-28T13:33:40;88.85;;;55.35;;
46753;SDS011;32500;50.620;3.400;2023-07-28T13:36:09;89.43;;;55.55;;
46753;SDS011;32500;50.620;3.400;2023-07-28T13:38:35;88.82;;;55.42;;
46753;SDS011;32500;50.620;3.400;2023-07-28T13:41:04;89.50;;;55.13;;
46753;SDS011;32500;50.620;3.400;2023-07-28T13:43:31;90.97;;;55.25;;
46753;SDS011;32500;50.620;3.400;2023-07-28T13:45:58;90.13;;;55.30;;
46753;SDS011;32500;50.620;3.400;2023-07-28T13:48:26;90.85;;;55.53;;
46753;SDS011;32500;50.620;3.400;2023-07-28T13:50:53;87.60;;;54.75;;
46753;SDS011;32500;50.620;3.400;2023-07-28T13:53:19;89.13;;;55.10;;
46753;SDS011;32500;50.620;3.400;2023-07-28T13:55:44;88.30;;;55.20;;
46753;SDS011;32500;50.620;3.400;2023-07-28T13:58:10;88.53;;;55.22;;
46753;SDS011;32500;50.620;3.400;2023-07-28T14:00:36;89.00;;;55.50;;
46753;SDS011;32500;50.620;3.400;2023-07-28T14:03:01;88.43;;;55.22;;
46753;SDS011;32500;50.620;3.400;2023-07-28T14:05:28;88.90;;;55.05;;
46753;SDS011;32500;50.620;3.400;2023-07-28T14:07:53;88.15;;;55.17;;
46753;SDS011;32500;50.620;3.400;2023-07-28T14:10:20;90.30;;;55.13;;
46753;SDS011;32500;50.620;3.400;2023-07-28T14:12:46;87.93;;;55.10;;
46753;SDS011;32500;50.620;3.400;2023-07-28T14:15:12;88.68;;;55.20;;
46753;SDS011;32500;50.620;3.400;2023-07-28T14:17:38;89.07;;;55.38;;
46753;SDS011;32500;50.620;3.400;2023-07-28T14:20:04;89.05;;;55.35;;
46753;SDS011;32500;50.620;3.400;2023-07-28T14:22:31;89.88;;;55.65;;
46753;SDS011;32500;50.620;3.400;2023-07-28T14:24:56;89.93;;;55.83;;
46753;SDS011;32500;50.620;3.400;2023-07-28T14:27:23;89.07;;;55.42;;
46753;SDS011;32500;50.620;3.400;2023-07-28T14:29:53;90.00;;;55.42;;
46753;SDS011;32500;50.620;3.400;2023-07-28T14:32:19;89.28;;;55.08;;
46753;SDS011;32500;50.620;3.400;2023-07-28T14:34:45;90.15;;;55.38;;
46753;SDS011;32500;50.620;3.400;2023-07-28T14:37:11;89.90;;;55.05;;
46753;SDS011;32500;50.620;3.400;2023-07-28T14:39:36;88.85;;;55.40;;
46753;SDS011;32500;50.620;3.400;2023-07-28T14:42:02;100.10;;;55.53;;
46753;SDS011;32500;50.620;3.400;2023-07-28T14:44:29;88.68;;;55.38;;
46753;SDS011;32500;50.620;3.400;2023-07-28T14:46:55;91.32;;;55.33;;
46753;SDS011;32500;50.620;3.400;2023-07-28T14:49:20;88.22;;;55.05;;
46753;SDS011;32500;50.620;3.400;2023-07-28T14:51:46;89.30;;;55.53;;
46753;SDS011;32500;50.620;3.400;2023-07-28T14:54:11;90.35;;;55.40;;
46753;SDS011;32500;50.620;3.400;2023-07-28T14:56:37;88.50;;;55.25;;
46753;SDS011;32500;50.620;3.400;2023-07-28T14:59:03;88.63;;;55.35;;
46753;SDS011;32500;50.620;3.400;2023-07-28T15:01:29;89.50;;;55.42;;
46753;SDS011;32500;50.620;3.400;2023-07-28T15:03:56;88.90;;;55.38;;
46753;SDS011;32500;50.620;3.400;2023-07-28T15:06:21;89.38;;;55.53;;
46753;SDS011;32500;50.620;3.400;2023-07-28T15:08:47;88.95;;;55.55;;
46753;SDS011;32500;50.620;3.400;2023-07-28T15:11:13;90.22;;;55.47;;
46753;SDS011;32500;50.620;3.400;2023-07-28T15:13:39;89.57;;;55.40;;
46753;SDS011;32500;50.620;3.400;2023-07-28T15:16:05;90.30;;;55.30;;
46753;SDS011;32500;50.620;3.400;2023-07-28T15:18:31;90.90;;;55.80;;
46753;SDS011;32500;50.620;3.400;2023-07-28T15:20:56;90.40;;;55.60;;